Time;durP1;ratioP1;P1;durP2;ratioP2;P2;SDS_P1;SDS_P2;PMS_P1;PMS_P2;Temp;Humidity;BMP_temperature;BMP_pressure;BME280_temperature;BME280_humidity;BME280_pressure;Samples;Min_cycle;Max_cycle;Signal;HPM_P1;HPM_P2
2021/08/03 00:00:50;;;;;;;;;;;;;;;24.93;56.04;100422.97;5016373;28;1742;-53
2021/08/03 00:03:17;;;;;;;;;;;;;;;24.90;56.95;100426.03;5025749;28;1408;-52
2021/08/03 00:05:50;;;;;;;;;;;;;;;24.89;56.40;100423.50;5029086;28;1770;-52
2021/08/03 00:08:36;;;;;;;;;;;;;;;24.96;56.47;100419.88;5023358;28;1673;-53
2021/08/03 00:11:05;;;;;;;;;;;;;;;25.00;56.17;100407.66;5015079;28;1977;-52
2021/08/03 00:13:35;;;;;;;;;;;;;;;25.01;56.91;100405.81;5015122;28;1956;-52
2021/08/03 00:16:08;;;;;;;;;;;;;;;24.95;56.46;100414.69;5028599;28;1166;-52
2021/08/03 00:18:36;;;;;;;;;;;;;;;24.98;56.44;100422.41;5031282;28;1871;-52
2021/08/03 00:21:07;;;;;;;;;;;;;;;24.95;57.12;100429.03;5018679;28;1535;-52
2021/08/03 00:23:33;;;;;;;;;;;;;;;24.94;56.70;100437.31;5029196;28;1606;-52
2021/08/03 00:26:03;;;;;;;;;;;;;;;24.85;56.24;100425.75;5034053;28;1132;-52
2021/08/03 00:28:32;;;;;;;;;;;;;;;24.84;57.08;100432.16;5031052;28;1894;-52
2021/08/03 00:31:00;;;;;;;;;;;;;;;24.81;56.93;100433.38;5023816;28;1818;-52
2021/08/03 00:33:30;;;;;;;;;;;;;;;24.80;55.89;100433.56;5026386;28;2250;-52
2021/08/03 00:35:56;;;;;;;;;;;;;;;24.85;56.20;100433.88;5015270;28;1825;-52
2021/08/03 00:38:29;;;;;;;;;;;;;;;24.85;56.68;100435.72;5014678;28;1896;-52
2021/08/03 00:40:58;;;;;;;;;;;;;;;24.80;56.33;100438.97;5023425;28;1837;-52
2021/08/03 00:43:27;;;;;;;;;;;;;;;24.73;57.09;100451.53;5018394;28;1892;-52
2021/08/03 00:45:54;;;;;;;;;;;;;;;24.61;56.94;100454.66;5025602;28;1622;-53
2021/08/03 00:48:21;;;;;;;;;;;;;;;24.76;55.98;100456.59;5029624;28;1734;-52
2021/08/03 00:50:50;;;;;;;;;;;;;;;24.77;55.77;100453.72;5023769;28;1069;-52
2021/08/03 00:53:16;;;;;;;;;;;;;;;24.80;55.68;100450.63;5015434;28;2016;-52
2021/08/03 00:55:49;;;;;;;;;;;;;;;24.83;55.90;100454.84;5012938;28;1103;-52
2021/08/03 00:58:18;;;;;;;;;;;;;;;24.78;56.45;100463.47;5020558;28;1898;-52
2021/08/03 01:00:47;;;;;;;;;;;;;;;24.72;56.27;100466.09;5028571;28;1814;-52
2021/08/03 01:03:16;;;;;;;;;;;;;;;24.75;55.92;100463.00;5024507;28;1556;-52
2021/08/03 01:05:55;;;;;;;;;;;;;;;24.78;55.89;100466.19;5025922;28;1788;-52
2021/08/03 01:08:27;;;;;;;;;;;;;;;24.79;55.95;100475.16;5019808;28;1726;-53
2021/08/03 01:11:02;;;;;;;;;;;;;;;24.74;55.89;100474.84;5025078;28;1786;-52
2021/08/03 01:13:43;;;;;;;;;;;;;;;24.72;56.38;100474.19;5027981;28;2049;-52
2021/08/03 01:16:27;;;;;;;;;;;;;;;24.64;56.58;100453.47;5019311;28;1959;-53
2021/08/03 01:18:56;;;;;;;;;;;;;;;24.70;55.76;100479.78;5025237;28;1653;-52
2021/08/03 01:21:38;;;;;;;;;;;;;;;24.71;56.02;100484.19;5013795;28;1070;-52
2021/08/03 01:24:36;;;;;;;;;;;;;;;24.71;56.61;100472.50;5019921;28;1557;-52
2021/08/03 01:27:20;;;;;;;;;;;;;;;24.63;56.03;100491.47;4956880;28;1854;-52
2021/08/03 01:30:02;;;;;;;;;;;;;;;24.57;56.40;100483.09;5015353;28;1734;-52
2021/08/03 01:32:30;;;;;;;;;;;;;;;24.55;56.65;100492.38;5024459;28;1910;-53
2021/08/03 01:34:59;;;;;;;;;;;;;;;24.58;57.08;100495.56;5024478;28;1747;-52
2021/08/03 01:37:29;;;;;;;;;;;;;;;24.68;56.22;100510.72;5028048;28;1572;-52
2021/08/03 01:40:01;;;;;;;;;;;;;;;24.65;56.48;100489.44;5016698;28;1870;-52
2021/08/03 01:42:29;;;;;;;;;;;;;;;24.70;56.70;100505.97;5031370;28;1465;-52
2021/08/03 01:45:11;;;;;;;;;;;;;;;24.60;56.62;100498.94;5019595;28;1822;-52
2021/08/03 01:47:40;;;;;;;;;;;;;;;24.69;56.32;100515.09;5013815;28;1743;-52
2021/08/03 01:50:10;;;;;;;;;;;;;;;24.65;56.32;100524.59;5013562;28;1067;-52
2021/08/03 01:52:38;;;;;;;;;;;;;;;24.66;56.42;100532.53;5017569;28;1980;-52
2021/08/03 01:55:07;;;;;;;;;;;;;;;24.59;57.17;100521.59;5013374;28;1118;-52
2021/08/03 01:57:37;;;;;;;;;;;;;;;24.56;57.07;100521.94;5019714;28;1795;-52
2021/08/03 02:02:47;;;;;;;;;;;;;;;24.54;57.22;100532.09;5043229;23;2034;-54
2021/08/03 02:05:20;;;;;;;;;;;;;;;24.53;57.00;100538.53;5016589;28;1724;-55
2021/08/03 02:07:48;;;;;;;;;;;;;;;24.53;57.29;100543.94;5018487;28;1947;-55
2021/08/03 02:10:19;;;;;;;;;;;;;;;24.49;57.27;100537.19;5030736;28;1797;-55
2021/08/03 02:12:46;;;;;;;;;;;;;;;24.30;56.86;100538.44;5031347;28;1926;-54
2021/08/03 02:15:14;;;;;;;;;;;;;;;24.35;57.57;100543.31;5031043;28;1854;-54
2021/08/03 02:17:42;;;;;;;;;;;;;;;24.38;56.64;100540.25;5030758;28;1668;-55
2021/08/03 02:20:22;;;;;;;;;;;;;;;24.34;57.40;100557.84;5032301;28;1147;-55
2021/08/03 02:22:50;;;;;;;;;;;;;;;24.50;56.94;100557.78;5029065;28;1964;-55
2021/08/03 02:25:20;;;;;;;;;;;;;;;24.59;56.82;100580.22;5015378;28;1079;-55
2021/08/03 02:27:48;;;;;;;;;;;;;;;24.58;56.70;100563.16;5025070;28;1746;-54
2021/08/03 02:30:23;;;;;;;;;;;;;;;24.58;57.13;100567.72;5033800;28;1927;-54
2021/08/03 02:32:52;;;;;;;;;;;;;;;24.54;56.39;100556.41;5034753;28;1977;-54
2021/08/03 02:35:29;;;;;;;;;;;;;;;24.50;57.25;100571.31;5034634;28;1959;-54
2021/08/03 02:37:59;;;;;;;;;;;;;;;24.46;57.56;100579.94;5035181;28;1077;-54
2021/08/03 02:40:26;;;;;;;;;;;;;;;24.39;57.26;100580.63;5016224;28;1437;-54
2021/08/03 02:42:53;;;;;;;;;;;;;;;24.43;56.91;100575.69;5015737;28;1984;-54
2021/08/03 02:45:24;;;;;;;;;;;;;;;24.37;57.51;100571.88;5027700;28;1833;-55
2021/08/03 02:47:58;;;;;;;;;;;;;;;24.48;56.79;100589.53;5016779;28;1499;-54
2021/08/03 02:50:31;;;;;;;;;;;;;;;24.52;57.37;100595.47;5026846;28;1684;-55
2021/08/03 02:53:03;;;;;;;;;;;;;;;24.54;57.38;100604.25;5024576;28;2002;-54
2021/08/03 02:55:36;;;;;;;;;;;;;;;24.49;57.26;100610.16;5014810;28;1082;-55
2021/08/03 02:58:20;;;;;;;;;;;;;;;24.55;57.31;100622.13;5030238;28;1493;-54
2021/08/03 03:00:55;;;;;;;;;;;;;;;24.55;56.75;100628.41;5030570;28;1799;-54
2021/08/03 03:03:25;;;;;;;;;;;;;;;24.50;56.51;100636.19;5030982;28;1903;-55
2021/08/03 03:05:58;;;;;;;;;;;;;;;24.51;57.28;100654.13;5034238;28;1980;-54
2021/08/03 03:08:30;;;;;;;;;;;;;;;24.52;57.43;100639.56;5034135;28;1753;-54
2021/08/03 03:11:01;;;;;;;;;;;;;;;24.51;56.98;100648.72;5033050;28;1506;-55
2021/08/03 03:13:44;;;;;;;;;;;;;;;24.61;56.97;100649.34;5014889;28;1902;-54
2021/08/03 03:16:15;;;;;;;;;;;;;;;24.50;57.48;100648.84;5025809;28;1838;-55
2021/08/03 03:18:50;;;;;;;;;;;;;;;24.41;57.52;100631.78;5023334;28;1714;-55
2021/08/03 03:21:22;;;;;;;;;;;;;;;24.45;57.45;100635.81;5034630;28;1075;-54
2021/08/03 03:23:51;;;;;;;;;;;;;;;24.56;57.66;100659.81;5016738;28;1678;-55
2021/08/03 03:26:20;;;;;;;;;;;;;;;24.52;57.28;100660.34;5020111;28;1345;-55
2021/08/03 03:28:49;;;;;;;;;;;;;;;24.56;57.22;100661.69;5018050;28;1080;-55
2021/08/03 03:31:17;;;;;;;;;;;;;;;24.51;57.98;100673.03;5032326;28;1087;-55
2021/08/03 03:33:43;;;;;;;;;;;;;;;24.49;56.92;100676.88;5032605;28;1910;-55
2021/08/03 03:36:10;;;;;;;;;;;;;;;24.51;57.13;100659.53;5032352;28;1639;-54
2021/08/03 03:38:40;;;;;;;;;;;;;;;24.47;57.03;100663.56;5026685;28;2045;-54
2021/08/03 03:41:07;;;;;;;;;;;;;;;24.38;57.79;100664.59;5024311;28;1562;-55
2021/08/03 03:43:33;;;;;;;;;;;;;;;24.48;57.08;100670.63;5027183;28;1588;-54
2021/08/03 03:46:03;;;;;;;;;;;;;;;24.46;57.98;100672.66;5024150;28;1555;-54
2021/08/03 03:48:31;;;;;;;;;;;;;;;24.48;57.46;100664.41;5022653;28;1649;-54
2021/08/03 03:50:59;;;;;;;;;;;;;;;24.54;57.75;100675.38;5022081;28;1087;-55
2021/08/03 03:53:27;;;;;;;;;;;;;;;24.61;57.27;100679.06;5018490;28;1967;-55
2021/08/03 03:55:55;;;;;;;;;;;;;;;24.58;56.94;100671.31;5031329;28;1126;-54
2021/08/03 03:58:22;;;;;;;;;;;;;;;24.56;57.07;100662.53;5032220;28;1877;-55
2021/08/03 04:00:49;;;;;;;;;;;;;;;24.62;57.42;100677.22;5032112;28;1784;-54
2021/08/03 04:03:17;;;;;;;;;;;;;;;24.67;56.92;100685.66;5031531;28;1733;-55
2021/08/03 04:05:44;;;;;;;;;;;;;;;24.52;56.90;100665.75;5028413;28;1669;-55
2021/08/03 04:08:11;;;;;;;;;;;;;;;24.61;57.10;100664.69;5024587;28;1613;-54
2021/08/03 04:10:38;;;;;;;;;;;;;;;24.60;57.04;100666.56;5032005;28;1721;-54
2021/08/03 04:13:06;;;;;;;;;;;;;;;24.71;56.53;100675.31;5031306;28;1969;-54
2021/08/03 04:15:33;;;;;;;;;;;;;;;24.63;56.64;100665.38;5021991;28;1824;-55
2021/08/03 04:18:00;;;;;;;;;;;;;;;24.69;56.20;100661.13;5028915;28;1272;-54
2021/08/03 04:20:26;;;;;;;;;;;;;;;24.68;56.63;100660.28;5027906;28;1811;-54
2021/08/03 04:22:53;;;;;;;;;;;;;;;24.67;56.10;100655.91;5025032;28;1511;-55
2021/08/03 04:25:20;;;;;;;;;;;;;;;24.69;56.52;100658.41;5025257;28;1388;-54
2021/08/03 04:27:46;;;;;;;;;;;;;;;24.72;56.06;100677.00;5022981;28;1512;-54
2021/08/03 04:30:15;;;;;;;;;;;;;;;24.70;55.69;100681.75;5022635;28;1689;-54
2021/08/03 04:32:42;;;;;;;;;;;;;;;24.70;56.40;100669.06;5022806;28;1914;-55
2021/08/03 04:35:09;;;;;;;;;;;;;;;24.86;56.39;100670.84;5025715;28;1396;-54
2021/08/03 04:37:39;;;;;;;;;;;;;;;24.93;56.23;100679.94;5027078;28;1721;-54
2021/08/03 04:40:06;;;;;;;;;;;;;;;24.92;56.23;100656.59;5026403;28;1443;-55
2021/08/03 04:42:32;;;;;;;;;;;;;;;25.09;56.11;100680.84;5030856;28;1625;-54
2021/08/03 04:44:59;;;;;;;;;;;;;;;25.18;55.40;100677.94;5029911;28;1951;-55
2021/08/03 04:47:26;;;;;;;;;;;;;;;25.28;55.77;100685.84;5025035;28;1262;-55
2021/08/03 04:49:53;;;;;;;;;;;;;;;25.39;55.70;100696.28;5032025;28;1937;-54
2021/08/03 04:52:20;;;;;;;;;;;;;;;25.38;56.18;100694.56;5027512;28;1967;-54
2021/08/03 04:54:46;;;;;;;;;;;;;;;25.20;56.37;100707.53;5023509;28;1969;-54
2021/08/03 04:57:13;;;;;;;;;;;;;;;25.08;56.72;100719.78;5019695;28;1573;-56
2021/08/03 04:59:39;;;;;;;;;;;;;;;25.12;55.86;100715.69;5023971;28;1483;-55
2021/08/03 05:02:06;;;;;;;;;;;;;;;25.12;56.90;100734.63;5022542;28;1742;-54
2021/08/03 05:04:34;;;;;;;;;;;;;;;25.16;55.96;100735.97;5032396;28;1054;-54
2021/08/03 05:07:02;;;;;;;;;;;;;;;25.08;56.60;100736.00;5026104;28;1951;-54
2021/08/03 05:09:30;;;;;;;;;;;;;;;25.09;56.71;100733.13;5014645;28;1873;-54
2021/08/03 05:11:57;;;;;;;;;;;;;;;25.14;56.28;100738.00;5013619;28;1994;-54
2021/08/03 05:14:25;;;;;;;;;;;;;;;25.15;57.24;100753.25;5017603;28;1977;-54
2021/08/03 05:16:52;;;;;;;;;;;;;;;25.15;56.74;100742.41;5025935;28;1728;-54
2021/08/03 05:19:19;;;;;;;;;;;;;;;25.15;57.52;100728.88;5031066;28;1826;-54
2021/08/03 05:21:49;;;;;;;;;;;;;;;25.26;57.57;100744.72;5031845;28;1794;-54
2021/08/03 05:24:17;;;;;;;;;;;;;;;25.27;57.85;100732.91;5032598;28;1037;-52
2021/08/03 05:26:44;;;;;;;;;;;;;;;25.19;58.04;100741.03;5027834;28;1953;-52
2021/08/03 05:29:12;;;;;;;;;;;;;;;25.33;57.38;100740.31;5012804;28;1811;-52
2021/08/03 05:31:39;;;;;;;;;;;;;;;25.51;58.04;100753.56;5012991;28;1421;-52
2021/08/03 05:34:06;;;;;;;;;;;;;;;25.53;57.04;100740.69;5032059;28;1975;-51
2021/08/03 05:36:38;;;;;;;;;;;;;;;25.64;57.77;100736.72;5031356;28;1766;-51
2021/08/03 05:39:09;;;;;;;;;;;;;;;25.65;57.70;100746.53;5031457;28;1923;-52
2021/08/03 05:41:38;;;;;;;;;;;;;;;25.74;57.32;100748.13;5015511;28;2043;-52
2021/08/03 05:44:06;;;;;;;;;;;;;;;25.73;57.93;100746.47;5024180;28;1966;-52
2021/08/03 05:46:33;;;;;;;;;;;;;;;25.72;58.67;100746.63;5018558;28;1795;-52
2021/08/03 05:49:03;;;;;;;;;;;;;;;25.80;57.58;100763.69;5017258;28;1789;-52
2021/08/03 05:51:33;;;;;;;;;;;;;;;25.86;57.51;100742.31;5027928;28;2082;-52
2021/08/03 05:54:07;;;;;;;;;;;;;;;25.82;58.08;100725.56;5027732;28;1906;-52
2021/08/03 05:56:43;;;;;;;;;;;;;;;25.87;58.39;100750.25;5030180;28;2410;-52
2021/08/03 05:59:09;;;;;;;;;;;;;;;25.89;59.12;100748.22;5030942;28;1726;-52
2021/08/03 06:01:38;;;;;;;;;;;;;;;25.94;59.66;100756.69;5032473;28;1271;-52
2021/08/03 06:04:05;;;;;;;;;;;;;;;25.93;60.25;100746.84;5016960;28;1808;-53
2021/08/03 06:06:36;;;;;;;;;;;;;;;25.84;64.10;100747.91;5022169;28;1775;-52
2021/08/03 06:09:03;;;;;;;;;;;;;;;25.79;63.22;100751.16;5022833;28;1869;-52
2021/08/03 06:11:29;;;;;;;;;;;;;;;25.80;62.81;100739.31;5024086;28;1776;-52
2021/08/03 06:13:58;;;;;;;;;;;;;;;25.78;62.59;100744.06;5030212;28;1906;-52
2021/08/03 06:16:25;;;;;;;;;;;;;;;25.83;62.81;100740.81;5030111;28;1630;-52
2021/08/03 06:18:53;;;;;;;;;;;;;;;25.83;62.40;100745.41;5022088;28;1855;-52
2021/08/03 06:21:20;;;;;;;;;;;;;;;25.84;62.19;100730.81;5024148;28;1111;-52
2021/08/03 06:23:47;;;;;;;;;;;;;;;25.87;62.68;100730.47;5021152;28;2046;-52
2021/08/03 06:26:14;;;;;;;;;;;;;;;25.82;62.54;100733.69;5033722;28;1685;-52
2021/08/03 06:28:43;;;;;;;;;;;;;;;25.87;62.83;100752.13;5015001;28;1004;-53
2021/08/03 06:31:11;;;;;;;;;;;;;;;25.89;61.96;100747.38;5022079;28;1646;-52
2021/08/03 06:33:38;;;;;;;;;;;;;;;25.89;61.70;100744.66;5034036;28;2003;-52
2021/08/03 06:36:05;;;;;;;;;;;;;;;25.94;61.64;100747.69;5028055;28;1828;-52
2021/08/03 06:38:31;;;;;;;;;;;;;;;25.91;61.50;100742.66;5021325;28;1878;-52
2021/08/03 06:41:01;;;;;;;;;;;;;;;25.92;61.69;100749.75;5024534;28;1805;-52
2021/08/03 06:43:28;;;;;;;;;;;;;;;25.94;61.45;100751.25;5029176;28;1741;-52
2021/08/03 06:46:00;;;;;;;;;;;;;;;25.98;61.16;100754.41;5030112;28;1758;-52
2021/08/03 06:48:30;;;;;;;;;;;;;;;25.96;61.14;100760.06;5026185;28;1667;-52
2021/08/03 06:51:00;;;;;;;;;;;;;;;26.00;60.98;100752.38;5026439;28;1065;-52
2021/08/03 06:53:27;;;;;;;;;;;;;;;26.00;61.58;100755.09;5033404;28;1971;-52
2021/08/03 06:55:56;;;;;;;;;;;;;;;26.03;61.03;100762.03;5034488;28;994;-52
2021/08/03 06:58:28;;;;;;;;;;;;;;;26.02;60.94;100761.16;5022245;28;1835;-52
2021/08/03 07:00:58;;;;;;;;;;;;;;;26.02;61.92;100754.91;5033194;28;1822;-52
2021/08/03 07:03:25;;;;;;;;;;;;;;;26.05;61.74;100739.13;5026465;28;2085;-52
2021/08/03 07:05:54;;;;;;;;;;;;;;;26.05;61.28;100763.53;5027773;28;1818;-52
2021/08/03 07:08:21;;;;;;;;;;;;;;;26.02;61.29;100750.31;5030406;28;1840;-52
2021/08/03 07:10:51;;;;;;;;;;;;;;;26.06;61.04;100756.22;5022703;28;1782;-52
2021/08/03 07:13:17;;;;;;;;;;;;;;;26.07;61.17;100764.19;5021786;28;1972;-52
2021/08/03 07:15:45;;;;;;;;;;;;;;;26.08;61.13;100765.84;5024412;28;1652;-52
2021/08/03 07:18:11;;;;;;;;;;;;;;;26.04;60.96;100750.97;5027248;28;1830;-54
2021/08/03 07:20:40;;;;;;;;;;;;;;;26.10;61.56;100758.41;5024639;28;1089;-52
2021/08/03 07:23:08;;;;;;;;;;;;;;;26.09;61.36;100764.84;5020235;28;1818;-52
2021/08/03 07:25:34;;;;;;;;;;;;;;;26.11;60.88;100765.50;5018766;28;1147;-52
2021/08/03 07:28:01;;;;;;;;;;;;;;;26.05;61.47;100763.53;5019662;28;1938;-52
2021/08/03 07:30:27;;;;;;;;;;;;;;;26.11;61.10;100775.50;5023055;28;1659;-52
2021/08/03 07:32:54;;;;;;;;;;;;;;;26.11;61.04;100770.91;5022956;28;1469;-53
2021/08/03 07:35:20;;;;;;;;;;;;;;;26.08;60.76;100760.44;5023193;28;1977;-52
2021/08/03 07:37:47;;;;;;;;;;;;;;;26.11;60.92;100765.50;5025542;28;1484;-52
2021/08/03 07:40:15;;;;;;;;;;;;;;;26.13;61.28;100774.28;5032663;28;2048;-52
2021/08/03 07:42:42;;;;;;;;;;;;;;;26.13;61.09;100778.88;5030162;28;1750;-52
2021/08/03 07:45:08;;;;;;;;;;;;;;;26.17;61.12;100791.88;5023716;28;1692;-52
2021/08/03 07:47:35;;;;;;;;;;;;;;;26.15;60.91;100788.50;5032872;28;1690;-52
2021/08/03 07:50:02;;;;;;;;;;;;;;;26.13;60.71;100774.28;5033638;28;1042;-52
2021/08/03 07:52:28;;;;;;;;;;;;;;;26.13;61.26;100779.72;5032558;28;2000;-52
2021/08/03 07:54:55;;;;;;;;;;;;;;;26.14;61.24;100776.00;5032904;28;1913;-52
2021/08/03 07:57:23;;;;;;;;;;;;;;;26.13;61.59;100776.16;5027477;28;1913;-52
2021/08/03 07:59:51;;;;;;;;;;;;;;;26.18;61.23;100777.31;5026306;28;1080;-52
2021/08/03 08:02:17;;;;;;;;;;;;;;;26.16;60.77;100779.34;5026422;28;1904;-52
2021/08/03 08:04:44;;;;;;;;;;;;;;;26.15;60.87;100783.06;5014642;28;1853;-52
2021/08/03 08:07:10;;;;;;;;;;;;;;;26.15;60.74;100769.53;5022385;28;1097;-52
2021/08/03 08:09:37;;;;;;;;;;;;;;;26.16;60.86;100765.81;5020517;28;2001;-52
2021/08/03 08:12:03;;;;;;;;;;;;;;;26.17;60.87;100775.59;5033286;28;1905;-52
2021/08/03 08:14:31;;;;;;;;;;;;;;;26.18;60.73;100782.72;5022579;28;1914;-52
2021/08/03 08:17:00;;;;;;;;;;;;;;;26.19;61.11;100778.97;5031412;28;1795;-52
2021/08/03 08:19:27;;;;;;;;;;;;;;;26.23;61.33;100756.94;5025914;28;1759;-52
2021/08/03 08:21:53;;;;;;;;;;;;;;;26.21;61.07;100780.69;5028129;28;1649;-52
2021/08/03 08:24:20;;;;;;;;;;;;;;;26.23;60.80;100775.91;5033601;28;1078;-52
2021/08/03 08:26:47;;;;;;;;;;;;;;;26.20;60.87;100758.13;5032660;28;1585;-52
2021/08/03 08:29:16;;;;;;;;;;;;;;;26.19;60.61;100762.72;5030594;28;1625;-52
2021/08/03 08:31:44;;;;;;;;;;;;;;;26.21;61.00;100776.09;5021886;28;1659;-52
2021/08/03 08:34:11;;;;;;;;;;;;;;;26.24;60.40;100780.28;5024102;28;1914;-52
2021/08/03 08:36:38;;;;;;;;;;;;;;;26.22;60.42;100771.50;5033412;28;1085;-52
2021/08/03 08:39:04;;;;;;;;;;;;;;;26.27;61.30;100782.66;5032276;28;1983;-52
2021/08/03 08:41:31;;;;;;;;;;;;;;;26.24;60.85;100774.88;5031884;28;1702;-52
2021/08/03 08:43:57;;;;;;;;;;;;;;;26.26;60.96;100775.53;5022807;28;1545;-52
2021/08/03 08:46:25;;;;;;;;;;;;;;;26.25;61.11;100760.31;5022880;28;1966;-52
2021/08/03 08:48:53;;;;;;;;;;;;;;;26.21;60.44;100764.41;5023129;28;1904;-52
2021/08/03 08:51:20;;;;;;;;;;;;;;;26.23;60.93;100756.94;5027761;28;1099;-52
2021/08/03 08:53:46;;;;;;;;;;;;;;;26.23;61.12;100767.78;5020712;28;1935;-52
2021/08/03 08:56:13;;;;;;;;;;;;;;;26.25;60.98;100768.44;5032064;28;1930;-52
2021/08/03 08:58:43;;;;;;;;;;;;;;;26.24;60.68;100767.56;5013364;28;1067;-52
2021/08/03 09:01:10;;;;;;;;;;;;;;;26.23;60.96;100757.78;5020565;28;1873;-52
2021/08/03 09:03:36;;;;;;;;;;;;;;;26.26;60.63;100767.41;5023362;28;1844;-52
2021/08/03 09:06:06;;;;;;;;;;;;;;;26.25;61.33;100755.72;5022733;28;1790;-52
2021/08/03 09:08:37;;;;;;;;;;;;;;;26.27;61.43;100796.19;5022677;28;1795;-52
2021/08/03 09:11:10;;;;;;;;;;;;;;;26.28;61.09;100781.59;5022412;28;1859;-52
2021/08/03 09:13:56;;;;;;;;;;;;;;;26.28;61.51;100793.31;5022393;28;1672;-52
2021/08/03 09:16:23;;;;;;;;;;;;;;;26.24;61.07;100775.69;5022213;28;1926;-52
2021/08/03 09:18:52;;;;;;;;;;;;;;;26.28;61.11;100771.63;5021519;28;1441;-52
2021/08/03 09:21:21;;;;;;;;;;;;;;;26.29;60.65;100767.03;5024188;28;1074;-52
2021/08/03 09:23:50;;;;;;;;;;;;;;;26.27;60.71;100766.38;5020584;28;1875;-52
2021/08/03 09:26:17;;;;;;;;;;;;;;;26.29;60.57;100756.19;5031641;28;1951;-52
2021/08/03 09:28:56;;;;;;;;;;;;;;;26.28;60.66;100762.63;5033563;28;1138;-53
2021/08/03 09:31:23;;;;;;;;;;;;;;;26.25;61.34;100760.31;5035919;28;1920;-52
2021/08/03 09:33:50;;;;;;;;;;;;;;;26.29;61.14;100765.16;5024490;28;1970;-52
2021/08/03 09:36:16;;;;;;;;;;;;;;;26.28;60.72;100757.22;5024912;28;1902;-52
2021/08/03 09:38:44;;;;;;;;;;;;;;;26.31;61.10;100762.28;5026599;28;1755;-52
2021/08/03 09:41:11;;;;;;;;;;;;;;;26.32;60.89;100777.50;5029298;28;1766;-52
2021/08/03 09:43:38;;;;;;;;;;;;;;;26.33;60.76;100762.94;5024936;28;1455;-52
2021/08/03 09:46:05;;;;;;;;;;;;;;;26.28;61.60;100759.91;5027097;28;1526;-52
2021/08/03 09:48:32;;;;;;;;;;;;;;;26.32;61.13;100766.66;5029251;28;1739;-52
2021/08/03 09:51:04;;;;;;;;;;;;;;;26.30;60.88;100757.88;5037295;28;1919;-52
2021/08/03 09:53:37;;;;;;;;;;;;;;;26.29;61.54;100751.63;5026627;28;2033;-52
2021/08/03 09:56:05;;;;;;;;;;;;;;;26.29;60.67;100756.19;5035998;28;1910;-52
2021/08/03 09:58:32;;;;;;;;;;;;;;;26.31;61.54;100760.41;5024758;28;1846;-52
2021/08/03 10:01:21;;;;;;;;;;;;;;;26.28;61.55;100740.94;5024667;28;1832;-52
2021/08/03 10:03:48;;;;;;;;;;;;;;;26.29;61.28;100756.19;5025877;28;1814;-52
2021/08/03 10:06:15;;;;;;;;;;;;;;;26.26;61.58;100745.72;5026658;28;1722;-52
2021/08/03 10:08:42;;;;;;;;;;;;;;;26.26;60.92;100737.56;5032184;28;1964;-52
2021/08/03 10:11:10;;;;;;;;;;;;;;;26.29;61.30;100726.38;5031646;28;1749;-52
2021/08/03 10:13:37;;;;;;;;;;;;;;;26.29;61.02;100731.81;5029458;28;2012;-52
2021/08/03 10:16:04;;;;;;;;;;;;;;;26.27;61.43;100736.56;5026708;28;1981;-52
2021/08/03 10:18:30;;;;;;;;;;;;;;;26.31;60.82;100729.75;5032856;28;1707;-52
2021/08/03 10:20:57;;;;;;;;;;;;;;;26.31;61.26;100735.16;5028022;28;998;-52
2021/08/03 10:23:24;;;;;;;;;;;;;;;26.27;61.55;100731.97;5026645;28;2027;-52
2021/08/03 10:25:51;;;;;;;;;;;;;;;26.31;61.13;100740.59;5034106;28;1069;-52
2021/08/03 10:28:22;;;;;;;;;;;;;;;26.34;61.14;100734.78;5029301;28;1727;-52
2021/08/03 10:30:48;;;;;;;;;;;;;;;26.35;61.71;100731.06;5031730;28;1851;-52
2021/08/03 10:33:30;;;;;;;;;;;;;;;26.35;61.25;100731.88;5029773;28;1724;-52
2021/08/03 10:35:58;;;;;;;;;;;;;;;26.35;61.30;100733.78;5017528;28;2047;-52
2021/08/03 10:38:28;;;;;;;;;;;;;;;26.33;60.94;100724.97;5024352;28;1468;-52
2021/08/03 10:41:02;;;;;;;;;;;;;;;26.32;61.19;100734.13;5024329;28;1761;-54
2021/08/03 10:43:39;;;;;;;;;;;;;;;26.27;61.24;100715.72;5025363;28;1730;-52
2021/08/03 10:46:30;;;;;;;;;;;;;;;26.34;61.07;100732.06;5033552;28;1740;-52
2021/08/03 10:48:56;;;;;;;;;;;;;;;26.34;60.96;100715.81;5017559;28;1754;-52
2021/08/03 10:51:42;;;;;;;;;;;;;;;26.32;61.80;100717.84;5035785;28;1079;-52
2021/08/03 10:54:11;;;;;;;;;;;;;;;26.34;61.77;100715.81;5035561;28;948;-52
2021/08/03 10:56:56;;;;;;;;;;;;;;;26.31;61.74;100716.19;5034649;28;1906;-53
2021/08/03 10:59:35;;;;;;;;;;;;;;;26.33;61.83;100723.09;5031835;28;1625;-52
2021/08/03 11:02:02;;;;;;;;;;;;;;;26.30;61.17;100722.63;5025667;28;1858;-53
2021/08/03 11:04:43;;;;;;;;;;;;;;;26.31;61.67;100706.19;5015757;28;1031;-52
2021/08/03 11:07:29;;;;;;;;;;;;;;;26.36;61.78;100702.91;5034135;28;1417;-52
2021/08/03 11:09:56;;;;;;;;;;;;;;;26.35;61.12;100693.09;5024628;28;1737;-52
2021/08/03 11:12:36;;;;;;;;;;;;;;;26.35;61.23;100706.66;5015675;28;1042;-52
2021/08/03 11:15:21;;;;;;;;;;;;;;;26.35;60.98;100695.81;5023143;28;1971;-52
2021/08/03 11:17:53;;;;;;;;;;;;;;;26.35;61.08;100684.97;5015698;28;1077;-52
2021/08/03 11:20:49;;;;;;;;;;;;;;;26.33;61.52;100697.88;5023374;28;1837;-52
2021/08/03 11:23:17;;;;;;;;;;;;;;;26.33;61.89;100689.72;5025782;28;1776;-52
2021/08/03 11:25:44;;;;;;;;;;;;;;;26.37;61.29;100689.16;5032026;28;1089;-52
2021/08/03 11:28:11;;;;;;;;;;;;;;;26.38;61.65;100690.88;5023663;28;1845;-52
2021/08/03 11:30:39;;;;;;;;;;;;;;;26.39;61.85;100676.25;5033997;28;2054;-52
2021/08/03 11:33:06;;;;;;;;;;;;;;;26.38;61.65;100679.16;5026852;28;1691;-52
2021/08/03 11:35:33;;;;;;;;;;;;;;;26.35;61.10;100672.25;5024685;28;1931;-52
2021/08/03 11:38:02;;;;;;;;;;;;;;;26.36;61.69;100671.22;5028643;28;1723;-52
2021/08/03 11:40:29;;;;;;;;;;;;;;;26.39;61.59;100678.13;5034372;28;1724;-52
2021/08/03 11:42:57;;;;;;;;;;;;;;;26.38;61.81;100662.88;5021931;28;1481;-52
2021/08/03 11:45:24;;;;;;;;;;;;;;;26.39;61.73;100670.00;5027847;28;1559;-52
2021/08/03 11:47:51;;;;;;;;;;;;;;;26.42;61.20;100687.75;5031965;28;1757;-52
2021/08/03 11:50:28;;;;;;;;;;;;;;;26.40;61.54;100674.38;5025203;28;1099;-52
2021/08/03 11:52:54;;;;;;;;;;;;;;;26.39;61.33;100675.44;5033264;28;2299;-52
2021/08/03 11:55:21;;;;;;;;;;;;;;;26.38;61.61;100679.16;5034386;28;1898;-52
2021/08/03 11:57:49;;;;;;;;;;;;;;;26.39;61.90;100654.56;5025906;28;1664;-52
2021/08/03 12:00:17;;;;;;;;;;;;;;;26.40;61.97;100677.09;5024276;28;1759;-52
2021/08/03 12:02:44;;;;;;;;;;;;;;;26.41;61.52;100684.22;5025818;28;1835;-52
2021/08/03 12:05:12;;;;;;;;;;;;;;;26.44;61.29;100672.16;5021963;28;1512;-52
2021/08/03 12:07:41;;;;;;;;;;;;;;;26.43;61.40;100665.06;5023221;28;1833;-52
2021/08/03 12:10:09;;;;;;;;;;;;;;;26.43;61.32;100660.47;5023503;28;1685;-52
2021/08/03 12:12:35;;;;;;;;;;;;;;;26.44;61.81;100667.59;5014584;28;1694;-53
2021/08/03 12:15:06;;;;;;;;;;;;;;;26.44;62.01;100640.47;5022439;28;1910;-52
2021/08/03 12:17:32;;;;;;;;;;;;;;;26.41;61.76;100640.84;5022039;28;2007;-52
2021/08/03 12:20:03;;;;;;;;;;;;;;;26.41;61.98;100640.84;5022364;28;1990;-52
2021/08/03 12:22:31;;;;;;;;;;;;;;;26.41;61.71;100640.84;5032801;28;1656;-52
2021/08/03 12:24:59;;;;;;;;;;;;;;;26.41;61.34;100634.59;5034145;28;2017;-52
2021/08/03 12:27:26;;;;;;;;;;;;;;;26.37;61.67;100624.09;5033395;28;1909;-52
2021/08/03 12:29:52;;;;;;;;;;;;;;;26.41;61.68;100631.88;5027244;28;1882;-52
2021/08/03 12:32:34;;;;;;;;;;;;;;;26.39;61.33;100638.31;5025630;28;1662;-52
2021/08/03 12:35:08;;;;;;;;;;;;;;;26.38;61.91;100624.94;5020473;28;1902;-52
2021/08/03 12:37:34;;;;;;;;;;;;;;;26.38;61.37;100638.50;5030225;28;1676;-52
2021/08/03 12:40:02;;;;;;;;;;;;;;;26.42;61.92;100637.06;5021643;28;1837;-52
2021/08/03 12:42:34;;;;;;;;;;;;;;;26.41;61.47;100632.69;5024196;28;1798;-52
2021/08/03 12:45:11;;;;;;;;;;;;;;;26.46;61.34;100649.25;5032553;28;1491;-52
2021/08/03 12:47:50;;;;;;;;;;;;;;;26.43;61.46;100638.78;5032314;28;1783;-52
2021/08/03 12:50:17;;;;;;;;;;;;;;;26.45;62.08;100635.88;5033880;28;1048;-52
2021/08/03 12:52:47;;;;;;;;;;;;;;;26.43;61.44;100627.09;5032980;28;2104;-52
2021/08/03 12:55:14;;;;;;;;;;;;;;;26.41;61.80;100630.00;5033650;28;1882;-52
2021/08/03 12:57:45;;;;;;;;;;;;;;;26.42;62.02;100631.66;5025997;28;1948;-52
2021/08/03 13:00:26;;;;;;;;;;;;;;;26.42;62.18;100637.06;5023394;28;1784;-52
2021/08/03 13:02:52;;;;;;;;;;;;;;;26.44;62.03;100639.63;5028316;28;1990;-52